Terminal Aerodrome Forecast
Issued by NWS Sterling, VA

Current Version | Previous Version | Graphics & Text | Print | Product List | Glossary On
Versions: 1 2 3 4 5 6 7 8 9 10 11 12 13 14 15 16 17 18 19 20 21 22 23 24
000
FTUS41 KLWX 271134
TAFIAD
TAF
KIAD 271134Z 2712/2818 11003KT 2SM BR OVC004
     FM271400 17004KT 4SM BR BKN004
     FM271500 17007KT P6SM SCT050
     FM271700 18011G18KT P6SM FEW250
     FM280300 19008KT P6SM BKN040
     FM280600 22004KT 3SM BR BKN140
     FM281200 VRB03KT P6SM SCT200=

USA.gov is the U.S. government's official web portal to all federal, state and local government web resources and services.